Depesze METAR z lotnisk oddalonych od Rybnika do 200 kilometrów

LKMT - Ostrava/Mosnov, Czech Republic
Distance from station: SSW 55km
Updated: Fri, 17/08/2018 21:00 CEST
Clear
Clear
 Wind from NE
Wind: NE 7 km/h
Temperature: 22°C
Dew Point: 13°C
Humidity: 57%
Barometer: 1015 hPa
Summary: Clear
Visibility: greater than 10 km
2018/08/17 19:00 LKMT 171900Z 04004KT CAVOK 22/13 Q1015 NOSIG
EPKT - Katowice/Pyrzowi, Poland
Distance from station: NE 58km
Updated: Fri, 17/08/2018 21:00 CEST
Clear
Clear
 Wind from ESE
Wind: ESE 11 km/h
Temperature: 21°C
Dew Point: 15°C
Humidity: 69%
Barometer: 1016 hPa
Summary: Clear
Visibility: greater than 10 km
2018/08/17 19:00 EPKT 171900Z 11006KT CAVOK 21/15 Q1016
 
EPKK - Krakow/Balice, Poland
Distance from station: E 91km
Updated: Fri, 17/08/2018 21:00 CEST
Clear
Clear
 Wind from NE
Wind: NE 7 km/h
Temperature: 22°C
Dew Point: 17°C
Humidity: 73%
Barometer: 1016 hPa
Summary: Clear
Visibility: greater than 10 km
2018/08/17 19:00 EPKK 171900Z 04004KT CAVOK 22/17 Q1016
LZZI - Zilina, Slovakia
Distance from station: S 95km
Updated: Fri, 17/08/2018 21:00 CEST
Light rain, Mostly cloudy
Light rain, Mostly cloudy
 Wind from SE
Wind: SE 13 km/h
Temperature: 21°C
Dew Point: 17°C
Humidity: 78%
Barometer: 1016 hPa
Summary: Light Rain
Clouds: Mostly Cloudy
Visibility: 10 km
Cloud details: Few Clouds 1798 m
Mostly Cloudy 3018 m
2018/08/17 19:00 LZZI 171900Z 13007KT 9999 -RA FEW059 BKN099 21/17 Q1016
 
LKKU - Kunovice, Czech Republic
Distance from station: SW 139km
Updated: Fri, 17/08/2018 16:00 CEST
NOT Current
Clear
Clear
 Wind from SW
Wind: SW 7 km/h
Temperature: 31°C
Dew Point: 9°C
Humidity: 25%
Barometer: 1014 hPa
Summary: Clear
Visibility: greater than 10 km
2018/08/17 14:00 LKKU 171400Z 23004KT 170V310 CAVOK 31/09 Q1014
EPWR - Wroclaw/Strachow, Poland
Distance from station: NW 163km
Updated: Fri, 17/08/2018 21:00 CEST
Clear
Clear
 Wind from SE
Wind: SE 6 km/h
Temperature: 23°C
Dew Point: 12°C
Humidity: 50%
Barometer: 1015 hPa
Summary: Clear
Visibility: greater than 10 km
2018/08/17 19:00 EPWR 171900Z 13003KT 100V160 CAVOK 23/12 Q1015
 
LZSL - Sliac, Slovakia
Distance from station: SSE 168km
Updated: Fri, 17/08/2018 21:00 CEST
Few Clouds
Few Clouds
 Wind from N
Wind: N 7 km/h
Temperature: 22°C
Dew Point: 15°C
Humidity: 65%
Barometer: 1017 hPa
Clouds: Few Clouds
Visibility: 10 km
Cloud details: Few Clouds 1859 m
2018/08/17 19:00 LZSL 171900Z 35004KT 9999 FEW061 22/15 Q1017
LZTT - Poprad/Tatry, Slovakia
Distance from station: SE 168km
Updated: Fri, 17/08/2018 21:00 CEST
Partly Cloudy
Partly Cloudy
 Wind from varies
Wind: varies 4 km/h
Temperature: 18°C
Dew Point: 15°C
Humidity: 83%
Barometer: 1019 hPa
Clouds: Partly Cloudy
Visibility: 10 km
Cloud details: Few Clouds 1524 m
Partly Cloudy 2134 m
2018/08/17 19:00 LZTT 171900Z VRB02KT 9999 FEW050 SCT070 18/15 Q1019
 
LKTB - Brno/Turany, Czech Republic
Distance from station: SW 170km
Updated: Fri, 17/08/2018 21:00 CEST
Clear
Clear
 Wind from varies
Wind: varies 2 km/h
Temperature: 25°C
Dew Point: 9°C
Humidity: 36%
Barometer: 1015 hPa
Summary: Clear
Visibility: greater than 10 km
2018/08/17 19:00 LKTB 171900Z VRB01KT CAVOK 25/09 Q1015 NOSIG
LZPP - Piestany, Slovakia
Distance from station: SSW 171km
Updated: Fri, 17/08/2018 21:00 CEST
Clear
Clear
 Wind from ESE
Wind: ESE 7 km/h
Temperature: 23°C
Dew Point: 13°C
Humidity: 53%
Barometer: 1015 hPa
Summary: Clear
Visibility: greater than 10 km
2018/08/17 19:00 LZPP 171900Z 11004KT CAVOK 23/13 Q1015
 
EPLL - Lodz/Lublinek, Poland
Distance from station: NNE 191km
Updated: Fri, 17/08/2018 21:00 CEST
Clear
Clear
 Wind from E
Wind: E 9 km/h
Temperature: 23°C
Dew Point: 16°C
Humidity: 65%
Barometer: 1016 hPa
Summary: Clear
Visibility: greater than 10 km
2018/08/17 19:00 EPLL 171900Z 10005KT CAVOK 23/16 Q1016
LKPD - Pardubice, Czech Republic
Distance from station: W 200km
Updated: Fri, 17/08/2018 21:00 CEST
Clear
Clear
 Wind from S
Wind: S 2 km/h
Temperature: 23°C
Dew Point: 8°C
Humidity: 38%
Barometer: 1015 hPa
Summary: Clear
Visibility: greater than 10 km
2018/08/17 19:00 LKPD 171900Z 18001KT CAVOK 23/08 Q1015 NOSIG

Metar display script from Saratoga-Weather.org